Lackland Air Force Base (Kelly Field Annex) Airport
KSKF : now visible

Airfield :











YOU CAN JOIN US ON...

 
LOGIN :

Register | Disclaimer

   EN    FR    IT 

 









Legend :    VFR   Marginal VFR   IFR   Intensive IFR   Very Intensive IFR
Visi :
Ceiling :
>= 8 km
>= 3000ft
5 to 8 km
1000 to 3000 ft
1500m to 5 km
500 to 1000 ft
800 to 1500m
200 to 500 ft
< 800m
< 200 ft
Symbols :   Thunderstorms  Fog  Heavy snow  Heavy precipitations  Wind > 20 kt







- Airport Elevation : 691 ft


KSKF - Lackland Air Force Base (Kelly Field Annex)

CURRENT METAR :
  • 160711Z AUTO 16013KT 10SM SCT017 26/23 A2987 RMK AO2 SLP106 CHINO RWY34 $

EXPIRED METARs :
  • 160656Z AUTO 15009KT 10SM BKN017 26/23 A2987 RMK AO2 SLP106 T02590230 CHINO RWY34 $
  • 160556Z AUTO 14010KT 10SM FEW018 26/23 A2988 RMK AO2 SLP110 T02590226 10338 20259 403490241 52015 CHINO RWY34 $
  • 160541Z AUTO 15012KT 10SM SCT019 26/23 A2987 RMK AO2 SLP107 CHINO RWY34 $
  • 160521Z AUTO 14011KT 10SM BKN019 26/23 A2987 RMK AO2 BKN V SCT SLP107 CHINO RWY34 $
  • 160456Z AUTO 14016G20KT 10SM CLR 27/22 A2985 RMK AO2 SLP100 T02650221 CHINO RWY34 $

TAF TAF KSKF
Valid from the 16 at 02:00 until the 17 at 08:00 UTC


160200Z 1602/1708 15012G18KT 9999 FEW030 SCT250 QNH2980INS
TEMPO 1602/1605 14015G25KT
BECMG 1606/1607 15010KT 9999 BKN015 QNH2980INS
TEMPO 1606/1610 SCT020
BECMG 1615/1616 16012G20KT 9999 SCT030 QNH2973INS TX34/1622Z TN25/1611Z
KZHU FIR / North America



MET'MAP, your aeronautical weather chart ! - Copyright ORBIFLY December 2007 - Disclaimer

ORBIFLY MET'MAP TEAM :

Programming & Development : Alexandra Zaïnal
Concept & Development : Baudouin d'Aumeries
Co-Development & Prog : Marc-Olivier Méhu
Technical & hardware support : Manuel Goepfert

Contact : metmap@orbifly.com




SOURCES & CREDITS :

   NOAA       Earth
Advisory